createdAt,value
2023-02-12T00:03:20.761Z,2.20
2023-02-12T00:07:24.472Z,2.10
2023-02-12T00:11:31.089Z,2.10
2023-02-12T00:21:11.029Z,2.10
2023-02-12T00:25:26.898Z,2.10
2023-02-12T00:29:31.819Z,2.10
2023-02-12T00:34:25.021Z,2.10
2023-02-12T00:38:28.888Z,2.10
2023-02-12T00:42:36.152Z,2.10
2023-02-12T00:46:41.123Z,2.10
2023-02-12T00:51:11.556Z,2.20
2023-02-12T00:55:17.280Z,2.20
2023-02-12T00:59:20.654Z,2.20
2023-02-12T01:03:39.798Z,2.20
2023-02-12T01:07:43.660Z,2.20
2023-02-12T01:11:47.205Z,2.20
2023-02-12T01:15:50.918Z,2.20
2023-02-12T01:20:09.074Z,2.20
2023-02-12T01:24:12.456Z,2.20
2023-02-12T01:28:21.191Z,2.20
2023-02-12T01:32:24.756Z,2.20
2023-02-12T01:36:33.678Z,2.20
2023-02-12T01:40:37.579Z,2.20
2023-02-12T01:44:46.784Z,2.20
2023-02-12T01:48:50.377Z,2.10
2023-02-12T01:53:06.728Z,2.20
2023-02-12T01:57:13.346Z,2.10
2023-02-12T02:01:40.242Z,2.10
2023-02-12T02:05:52.286Z,2.10
2023-02-12T02:09:57.932Z,2.20
2023-02-12T02:19:41.672Z,2.10
2023-02-12T02:24:37.838Z,2.10
2023-02-12T02:29:07.347Z,2.10
2023-02-12T02:33:50.421Z,2.10
2023-02-12T02:43:48.887Z,2.10
2023-02-12T02:47:57.219Z,2.10
2023-02-12T02:52:33.737Z,2.10
2023-02-12T03:11:35.435Z,2.00
2023-02-12T03:15:48.689Z,2.00
2023-02-12T03:24:40.270Z,1.90
2023-02-12T03:28:43.646Z,2.00
2023-02-12T03:33:01.214Z,2.00
2023-02-12T03:37:08.674Z,2.00
2023-02-12T03:41:23.041Z,2.00
2023-02-12T03:45:40.041Z,2.00
2023-02-12T03:49:48.533Z,2.00
2023-02-12T03:53:53.502Z,2.00
2023-02-12T03:58:30.735Z,1.90
2023-02-12T04:02:35.028Z,1.90
2023-02-12T04:06:39.121Z,2.00
2023-02-12T04:11:02.893Z,2.00
2023-02-12T04:15:28.883Z,2.00
2023-02-12T04:19:44.988Z,2.00
2023-02-12T04:24:04.598Z,2.00
2023-02-12T04:28:18.005Z,2.00
2023-02-12T04:32:36.485Z,2.10
2023-02-12T04:37:05.242Z,2.10
2023-02-12T04:41:09.955Z,2.10
2023-02-12T04:45:15.354Z,2.10
2023-02-12T04:49:23.789Z,2.10
2023-02-12T04:53:27.292Z,2.10
2023-02-12T04:57:30.756Z,2.10
2023-02-12T05:02:12.200Z,2.10
2023-02-12T05:06:45.273Z,2.10
2023-02-12T05:10:49.307Z,2.10
2023-02-12T05:14:52.711Z,2.20
2023-02-12T05:18:56.166Z,2.20
2023-02-12T05:23:01.102Z,2.20
2023-02-12T05:27:04.652Z,2.10
2023-02-12T05:31:10.384Z,2.20
2023-02-12T05:35:19.972Z,2.20
2023-02-12T05:39:24.798Z,2.20
2023-02-12T05:44:29.768Z,2.20
2023-02-12T05:48:34.762Z,2.20
2023-02-12T05:52:38.156Z,2.10
2023-02-12T05:56:57.293Z,2.10
2023-02-12T06:01:00.631Z,2.10
2023-02-12T06:05:54.655Z,2.10
2023-02-12T06:09:58.184Z,2.00
2023-02-12T06:14:05.102Z,2.00
2023-02-12T06:18:36.122Z,2.00
2023-02-12T06:22:47.029Z,2.00
2023-02-12T06:26:52.034Z,2.00
2023-02-12T06:30:56.953Z,2.00
2023-02-12T06:35:27.616Z,2.10
2023-02-12T06:39:31.110Z,2.10
2023-02-12T06:43:59.699Z,2.20
2023-02-12T06:48:04.479Z,2.30
2023-02-12T06:52:07.847Z,2.40
2023-02-12T06:56:20.888Z,2.50
2023-02-12T07:00:25.018Z,2.60
2023-02-12T07:04:29.966Z,2.60
2023-02-12T07:08:38.191Z,2.60
2023-02-12T07:12:41.778Z,2.70
2023-02-12T07:16:50.016Z,2.70
2023-02-12T07:20:57.495Z,2.70
2023-02-12T07:25:00.862Z,2.70
2023-02-12T07:29:04.428Z,2.80
2023-02-12T07:33:07.783Z,2.90
2023-02-12T07:37:29.067Z,2.90
2023-02-12T07:41:34.307Z,3.00
2023-02-12T07:46:16.927Z,3.10
2023-02-12T07:50:20.492Z,3.00
2023-02-12T07:54:27.416Z,3.00
2023-02-12T07:58:30.826Z,3.00
2023-02-12T08:02:34.389Z,2.90
2023-02-12T08:06:39.640Z,2.90
2023-02-12T08:10:44.851Z,2.90
2023-02-12T08:14:49.730Z,2.90
2023-02-12T08:18:54.199Z,3.00
2023-02-12T08:22:58.421Z,3.00
2023-02-12T08:27:15.665Z,3.10
2023-02-12T08:31:22.269Z,3.00
2023-02-12T08:36:26.699Z,3.10
2023-02-12T08:40:30.219Z,3.00
2023-02-12T08:44:40.915Z,2.90
2023-02-12T08:48:45.642Z,2.90
2023-02-12T08:53:50.244Z,2.90
2023-02-12T08:57:58.094Z,3.00
2023-02-12T09:03:08.151Z,3.00
2023-02-12T09:07:21.759Z,3.10
2023-02-12T09:11:38.151Z,3.20
2023-02-12T09:15:44.934Z,3.20
2023-02-12T09:20:13.896Z,3.10
2023-02-12T09:24:18.764Z,3.10
2023-02-12T09:28:47.885Z,3.10
2023-02-12T09:32:51.232Z,3.10
2023-02-12T09:37:58.154Z,3.10
2023-02-12T09:47:52.777Z,3.10
2023-02-12T09:51:57.108Z,3.30
2023-02-12T09:56:02.897Z,3.60
2023-02-12T10:04:32.021Z,4.00
2023-02-12T10:09:01.747Z,4.10
2023-02-12T10:13:07.220Z,4.10
2023-02-12T10:17:19.170Z,4.10
2023-02-12T10:21:59.681Z,4.20
2023-02-12T10:26:18.934Z,4.20
2023-02-12T10:30:25.563Z,4.20
2023-02-12T10:34:34.553Z,4.20
2023-02-12T10:38:52.749Z,4.00
2023-02-12T10:42:57.493Z,4.10
2023-02-12T10:47:01.243Z,4.30
2023-02-12T10:51:42.383Z,4.40
2023-02-12T10:55:45.841Z,4.80
2023-02-12T10:59:50.888Z,5.00
2023-02-12T11:03:59.919Z,5.20
2023-02-12T11:08:05.549Z,5.10
2023-02-12T11:12:35.946Z,4.90
2023-02-12T11:16:48.100Z,4.90
2023-02-12T11:20:53.285Z,5.00
2023-02-12T11:25:18.142Z,5.10
2023-02-12T11:29:24.862Z,5.00
2023-02-12T11:34:38.793Z,4.80
2023-02-12T11:39:18.328Z,4.90
2023-02-12T11:43:25.107Z,5.00
2023-02-12T11:53:45.721Z,5.20
2023-02-12T11:57:52.047Z,5.30
2023-02-12T12:02:17.558Z,5.20
2023-02-12T12:07:38.784Z,5.10
2023-02-12T12:12:01.572Z,5.50
2023-02-12T12:21:19.830Z,5.70
2023-02-12T12:25:28.326Z,5.60
2023-02-12T12:29:59.180Z,5.40
2023-02-12T12:34:18.908Z,5.50
2023-02-12T12:38:46.901Z,5.60
2023-02-12T12:43:02.780Z,5.60
2023-02-12T12:47:29.718Z,5.70
2023-02-12T12:51:57.357Z,5.80
2023-02-12T12:56:34.747Z,6.00
2023-02-12T13:01:01.570Z,5.90
2023-02-12T13:05:58.536Z,5.70
2023-02-12T13:10:26.718Z,5.50
2023-02-12T13:14:42.240Z,5.40
2023-02-12T13:19:04.739Z,5.40
2023-02-12T13:23:17.872Z,5.50
2023-02-12T13:27:26.332Z,5.40
2023-02-12T13:31:51.556Z,5.40
2023-02-12T13:36:00.687Z,5.30
2023-02-12T13:40:07.324Z,5.10
2023-02-12T13:44:21.721Z,5.30
2023-02-12T13:48:37.226Z,5.20
2023-02-12T13:52:54.243Z,5.10
2023-02-12T13:57:00.255Z,4.90
2023-02-12T14:01:08.031Z,4.80
2023-02-12T14:06:28.817Z,4.80
2023-02-12T14:10:36.591Z,4.80
2023-02-12T14:14:42.983Z,4.90
2023-02-12T14:19:32.236Z,4.90
2023-02-12T14:23:37.353Z,4.90
2023-02-12T14:27:47.641Z,4.80
2023-02-12T14:32:32.055Z,4.80
2023-02-12T14:36:49.348Z,4.70
2023-02-12T14:40:54.323Z,4.70
2023-02-12T14:45:29.814Z,4.70
2023-02-12T14:49:38.288Z,4.60
2023-02-12T14:54:16.941Z,4.50
2023-02-12T15:02:58.744Z,4.40
2023-02-12T15:55:36.608Z,4.00
2023-02-12T16:05:48.890Z,3.90
2023-02-12T16:09:55.111Z,3.80
2023-02-12T16:14:01.780Z,3.70
2023-02-12T16:18:07.915Z,3.70
2023-02-12T16:22:27.038Z,3.70
2023-02-12T16:27:46.626Z,3.60
2023-02-12T16:32:01.253Z,3.60
2023-02-12T16:36:07.070Z,3.50
2023-02-12T16:40:26.172Z,3.50
2023-02-12T16:44:31.698Z,3.50
2023-02-12T16:48:53.441Z,3.50
2023-02-12T16:53:01.406Z,3.40
2023-02-12T16:57:06.260Z,3.40
2023-02-12T17:01:21.513Z,3.40
2023-02-12T17:05:25.406Z,3.40
2023-02-12T17:15:42.907Z,3.30
2023-02-12T17:19:46.433Z,3.30
2023-02-12T17:24:24.102Z,3.30
2023-02-12T17:28:27.893Z,3.30
2023-02-12T17:32:46.026Z,3.30
2023-02-12T17:36:49.649Z,3.30
2023-02-12T17:40:54.762Z,3.20
2023-02-12T17:44:58.425Z,3.20
2023-02-12T17:49:05.994Z,3.20
2023-02-12T17:53:10.520Z,3.20
2023-02-12T17:57:15.081Z,3.20
2023-02-12T18:01:20.623Z,3.20
2023-02-12T18:05:25.845Z,3.10
2023-02-12T18:09:56.383Z,3.10
2023-02-12T18:13:59.961Z,3.10
2023-02-12T18:18:55.838Z,3.10
2023-02-12T18:23:00.557Z,3.10
2023-02-12T18:27:11.138Z,3.10
2023-02-12T18:31:15.191Z,3.10
2023-02-12T18:35:19.387Z,3.00
2023-02-12T18:39:52.715Z,3.00
2023-02-12T18:43:56.235Z,3.00
2023-02-12T18:48:01.623Z,3.00
2023-02-12T18:52:05.153Z,3.00
2023-02-12T18:56:14.437Z,3.00
2023-02-12T19:00:18.004Z,3.00
2023-02-12T19:05:12.097Z,3.00
2023-02-12T19:09:17.210Z,2.90
2023-02-12T19:13:25.843Z,2.90
2023-02-12T19:17:29.358Z,2.90
2023-02-12T19:22:03.655Z,2.90
2023-02-12T19:26:08.690Z,2.80
2023-02-12T19:30:14.464Z,2.80
2023-02-12T19:34:20.008Z,2.80
2023-02-12T19:38:34.254Z,2.80
2023-02-12T19:42:37.541Z,2.80
2023-02-12T19:46:43.768Z,2.80
2023-02-12T19:50:47.161Z,2.80
2023-02-12T19:55:28.487Z,2.80
2023-02-12T19:59:59.334Z,2.70
2023-02-12T20:04:04.947Z,2.70
2023-02-12T20:08:20.584Z,2.70
2023-02-12T20:12:24.011Z,2.70
2023-02-12T20:16:37.520Z,2.70
2023-02-12T20:20:42.843Z,2.70
2023-02-12T20:24:52.038Z,2.70
2023-02-12T20:28:56.752Z,2.70
2023-02-12T20:33:26.143Z,2.70
2023-02-12T20:37:30.912Z,2.60
2023-02-12T20:41:38.704Z,2.60
2023-02-12T20:45:42.043Z,2.60
2023-02-12T20:49:46.394Z,2.50
2023-02-12T20:53:52.095Z,2.50
2023-02-12T20:57:55.542Z,2.60
2023-02-12T21:02:04.531Z,2.60
2023-02-12T21:06:08.611Z,2.60
2023-02-12T21:10:38.482Z,2.50
2023-02-12T21:14:41.795Z,2.40
2023-02-12T21:18:50.094Z,2.40
2023-02-12T21:22:53.360Z,2.40
2023-02-12T21:26:58.292Z,2.40
2023-02-12T21:31:08.982Z,2.40
2023-02-12T21:35:12.467Z,2.40
2023-02-12T21:39:26.402Z,2.40
2023-02-12T21:43:48.986Z,2.40
2023-02-12T21:47:52.704Z,2.30
2023-02-12T21:52:25.385Z,2.30
2023-02-12T21:56:29.172Z,2.30
2023-02-12T22:00:34.085Z,2.30
2023-02-12T22:04:38.673Z,2.30
2023-02-12T22:08:42.227Z,2.40
2023-02-12T22:12:45.791Z,2.40
2023-02-12T22:16:50.787Z,2.40
2023-02-12T22:22:01.026Z,2.30
2023-02-12T22:26:08.782Z,2.40
2023-02-12T22:30:39.743Z,2.30
2023-02-12T22:34:44.424Z,2.30
2023-02-12T22:39:14.989Z,2.30
2023-02-12T22:43:18.352Z,2.30
2023-02-12T22:47:24.489Z,2.30
2023-02-12T22:51:31.154Z,2.30
2023-02-12T22:55:39.459Z,2.40
2023-02-12T22:59:42.948Z,2.30
2023-02-12T23:03:47.039Z,2.30
2023-02-12T23:07:53.117Z,2.30
2023-02-12T23:11:56.587Z,2.30
2023-02-12T23:16:18.339Z,2.30
2023-02-12T23:20:21.830Z,2.30
2023-02-12T23:24:57.644Z,2.30
2023-02-12T23:29:01.208Z,2.30
2023-02-12T23:34:21.643Z,2.30
2023-02-12T23:38:25.022Z,2.30
2023-02-12T23:42:33.951Z,2.30
2023-02-12T23:46:37.589Z,2.30
2023-02-12T23:50:41.306Z,2.30
2023-02-12T23:54:44.664Z,2.30
2023-02-12T23:58:49.371Z,2.30
